sensor_id;sensor_type;location;lat;lon;timestamp;P1;durP1;ratioP1;P2;durP2;ratioP2
36415;SDS011;22447;44.530;18.620;2024-02-21T00:00:55;170.63;;;89.60;;
36415;SDS011;22447;44.530;18.620;2024-02-21T00:03:21;206.65;;;106.32;;
36415;SDS011;22447;44.530;18.620;2024-02-21T00:05:47;219.18;;;111.57;;
36415;SDS011;22447;44.530;18.620;2024-02-21T00:08:13;218.18;;;112.80;;
36415;SDS011;22447;44.530;18.620;2024-02-21T00:10:39;221.15;;;115.93;;
36415;SDS011;22447;44.530;18.620;2024-02-21T00:13:05;189.02;;;101.10;;
36415;SDS011;22447;44.530;18.620;2024-02-21T00:15:31;199.68;;;103.53;;
36415;SDS011;22447;44.530;18.620;2024-02-21T00:17:56;325.05;;;154.02;;
36415;SDS011;22447;44.530;18.620;2024-02-21T00:20:22;252.13;;;131.18;;
36415;SDS011;22447;44.530;18.620;2024-02-21T00:22:48;274.13;;;136.15;;
36415;SDS011;22447;44.530;18.620;2024-02-21T00:25:14;382.15;;;182.10;;
36415;SDS011;22447;44.530;18.620;2024-02-21T00:27:39;287.52;;;142.68;;
36415;SDS011;22447;44.530;18.620;2024-02-21T00:30:05;249.68;;;125.82;;
36415;SDS011;22447;44.530;18.620;2024-02-21T00:32:31;223.75;;;120.60;;
36415;SDS011;22447;44.530;18.620;2024-02-21T00:34:59;230.30;;;122.45;;
36415;SDS011;22447;44.530;18.620;2024-02-21T00:37:26;241.45;;;129.07;;
36415;SDS011;22447;44.530;18.620;2024-02-21T00:39:53;243.98;;;129.27;;
36415;SDS011;22447;44.530;18.620;2024-02-21T00:42:19;247.68;;;130.63;;
36415;SDS011;22447;44.530;18.620;2024-02-21T00:44:46;275.10;;;139.77;;
36415;SDS011;22447;44.530;18.620;2024-02-21T00:47:12;259.70;;;137.60;;
36415;SDS011;22447;44.530;18.620;2024-02-21T00:49:38;249.65;;;132.07;;
36415;SDS011;22447;44.530;18.620;2024-02-21T00:52:04;224.25;;;120.00;;
36415;SDS011;22447;44.530;18.620;2024-02-21T00:54:30;227.18;;;119.80;;
36415;SDS011;22447;44.530;18.620;2024-02-21T00:56:56;218.60;;;116.05;;
36415;SDS011;22447;44.530;18.620;2024-02-21T00:59:21;208.43;;;109.32;;
36415;SDS011;22447;44.530;18.620;2024-02-21T01:01:47;195.40;;;106.90;;
36415;SDS011;22447;44.530;18.620;2024-02-21T01:04:13;193.70;;;104.45;;
36415;SDS011;22447;44.530;18.620;2024-02-21T01:06:39;187.55;;;99.10;;
36415;SDS011;22447;44.530;18.620;2024-02-21T01:09:08;195.80;;;106.32;;
36415;SDS011;22447;44.530;18.620;2024-02-21T01:11:33;203.90;;;110.75;;
36415;SDS011;22447;44.530;18.620;2024-02-21T01:13:59;201.68;;;106.70;;
36415;SDS011;22447;44.530;18.620;2024-02-21T01:16:25;189.23;;;101.90;;
36415;SDS011;22447;44.530;18.620;2024-02-21T01:18:51;184.68;;;101.40;;
36415;SDS011;22447;44.530;18.620;2024-02-21T01:21:17;175.18;;;98.25;;
36415;SDS011;22447;44.530;18.620;2024-02-21T01:23:43;182.00;;;96.72;;
36415;SDS011;22447;44.530;18.620;2024-02-21T01:26:09;178.45;;;97.70;;
36415;SDS011;22447;44.530;18.620;2024-02-21T01:28:38;183.02;;;96.72;;
36415;SDS011;22447;44.530;18.620;2024-02-21T01:31:04;180.30;;;97.55;;
36415;SDS011;22447;44.530;18.620;2024-02-21T01:33:31;182.18;;;99.50;;
36415;SDS011;22447;44.530;18.620;2024-02-21T01:36:02;195.45;;;108.07;;
36415;SDS011;22447;44.530;18.620;2024-02-21T01:38:29;193.77;;;106.32;;
36415;SDS011;22447;44.530;18.620;2024-02-21T01:40:55;175.07;;;96.30;;
36415;SDS011;22447;44.530;18.620;2024-02-21T01:43:21;185.82;;;103.18;;
36415;SDS011;22447;44.530;18.620;2024-02-21T01:45:51;164.95;;;91.45;;
36415;SDS011;22447;44.530;18.620;2024-02-21T01:48:18;144.50;;;83.95;;
36415;SDS011;22447;44.530;18.620;2024-02-21T01:50:45;135.52;;;75.93;;
36415;SDS011;22447;44.530;18.620;2024-02-21T01:53:13;119.40;;;64.45;;
36415;SDS011;22447;44.530;18.620;2024-02-21T01:55:46;119.32;;;67.95;;
36415;SDS011;22447;44.530;18.620;2024-02-21T01:58:16;130.73;;;69.32;;
36415;SDS011;22447;44.530;18.620;2024-02-21T02:00:43;116.80;;;65.97;;
36415;SDS011;22447;44.530;18.620;2024-02-21T02:03:10;121.35;;;66.88;;
36415;SDS011;22447;44.530;18.620;2024-02-21T02:05:46;125.70;;;70.78;;
36415;SDS011;22447;44.530;18.620;2024-02-21T02:08:16;123.93;;;69.70;;
36415;SDS011;22447;44.530;18.620;2024-02-21T02:10:43;118.85;;;65.35;;
36415;SDS011;22447;44.530;18.620;2024-02-21T02:13:10;110.95;;;64.25;;
36415;SDS011;22447;44.530;18.620;2024-02-21T02:15:40;109.03;;;64.57;;
36415;SDS011;22447;44.530;18.620;2024-02-21T02:18:09;123.43;;;69.80;;
36415;SDS011;22447;44.530;18.620;2024-02-21T02:20:36;124.65;;;71.50;;
36415;SDS011;22447;44.530;18.620;2024-02-21T02:23:12;124.30;;;72.30;;
36415;SDS011;22447;44.530;18.620;2024-02-21T02:25:52;120.18;;;68.93;;
36415;SDS011;22447;44.530;18.620;2024-02-21T02:28:28;122.80;;;71.93;;
36415;SDS011;22447;44.530;18.620;2024-02-21T02:30:53;126.75;;;71.00;;
36415;SDS011;22447;44.530;18.620;2024-02-21T02:33:19;111.22;;;64.78;;
36415;SDS011;22447;44.530;18.620;2024-02-21T02:35:45;122.20;;;66.70;;
36415;SDS011;22447;44.530;18.620;2024-02-21T02:38:12;123.90;;;71.13;;
36415;SDS011;22447;44.530;18.620;2024-02-21T02:40:38;120.70;;;68.72;;
36415;SDS011;22447;44.530;18.620;2024-02-21T02:43:05;116.82;;;69.38;;
36415;SDS011;22447;44.530;18.620;2024-02-21T02:45:32;101.55;;;61.67;;
36415;SDS011;22447;44.530;18.620;2024-02-21T02:47:58;112.28;;;66.63;;
36415;SDS011;22447;44.530;18.620;2024-02-21T02:50:25;134.50;;;74.32;;
36415;SDS011;22447;44.530;18.620;2024-02-21T02:52:52;129.55;;;73.80;;
36415;SDS011;22447;44.530;18.620;2024-02-21T02:55:18;136.23;;;77.05;;
36415;SDS011;22447;44.530;18.620;2024-02-21T02:57:44;136.27;;;77.68;;
36415;SDS011;22447;44.530;18.620;2024-02-21T03:00:10;135.18;;;75.00;;
36415;SDS011;22447;44.530;18.620;2024-02-21T03:02:38;125.88;;;71.70;;
36415;SDS011;22447;44.530;18.620;2024-02-21T03:05:11;126.28;;;73.38;;
36415;SDS011;22447;44.530;18.620;2024-02-21T03:07:39;136.13;;;79.57;;
36415;SDS011;22447;44.530;18.620;2024-02-21T03:10:04;123.43;;;71.93;;
36415;SDS011;22447;44.530;18.620;2024-02-21T03:12:30;124.28;;;71.35;;
36415;SDS011;22447;44.530;18.620;2024-02-21T03:14:56;125.55;;;74.05;;
36415;SDS011;22447;44.530;18.620;2024-02-21T03:17:22;134.98;;;75.50;;
36415;SDS011;22447;44.530;18.620;2024-02-21T03:19:48;133.32;;;76.75;;
36415;SDS011;22447;44.530;18.620;2024-02-21T03:22:15;129.95;;;73.28;;
36415;SDS011;22447;44.530;18.620;2024-02-21T03:24:41;129.23;;;73.93;;
36415;SDS011;22447;44.530;18.620;2024-02-21T03:27:08;133.65;;;75.90;;
36415;SDS011;22447;44.530;18.620;2024-02-21T03:29:34;147.57;;;83.53;;
36415;SDS011;22447;44.530;18.620;2024-02-21T03:32:00;131.93;;;76.43;;
36415;SDS011;22447;44.530;18.620;2024-02-21T03:34:26;141.35;;;78.93;;
36415;SDS011;22447;44.530;18.620;2024-02-21T03:36:51;134.10;;;77.80;;
36415;SDS011;22447;44.530;18.620;2024-02-21T03:39:17;136.57;;;78.72;;
36415;SDS011;22447;44.530;18.620;2024-02-21T03:41:43;130.45;;;75.75;;
36415;SDS011;22447;44.530;18.620;2024-02-21T03:44:09;126.15;;;72.97;;
36415;SDS011;22447;44.530;18.620;2024-02-21T03:46:34;129.98;;;75.55;;
36415;SDS011;22447;44.530;18.620;2024-02-21T03:49:00;120.93;;;70.28;;
36415;SDS011;22447;44.530;18.620;2024-02-21T03:51:26;132.25;;;72.75;;
36415;SDS011;22447;44.530;18.620;2024-02-21T03:53:52;139.77;;;77.07;;
36415;SDS011;22447;44.530;18.620;2024-02-21T03:56:18;125.93;;;72.40;;
36415;SDS011;22447;44.530;18.620;2024-02-21T03:58:44;116.93;;;67.47;;
36415;SDS011;22447;44.530;18.620;2024-02-21T04:01:09;120.57;;;69.97;;
36415;SDS011;22447;44.530;18.620;2024-02-21T04:03:35;130.95;;;73.22;;
36415;SDS011;22447;44.530;18.620;2024-02-21T04:06:01;131.43;;;74.82;;
36415;SDS011;22447;44.530;18.620;2024-02-21T04:08:27;142.45;;;78.40;;
36415;SDS011;22447;44.530;18.620;2024-02-21T04:10:52;136.00;;;74.88;;
36415;SDS011;22447;44.530;18.620;2024-02-21T04:13:18;125.25;;;68.72;;
36415;SDS011;22447;44.530;18.620;2024-02-21T04:15:44;121.65;;;67.85;;
36415;SDS011;22447;44.530;18.620;2024-02-21T04:18:10;138.43;;;77.57;;
36415;SDS011;22447;44.530;18.620;2024-02-21T04:20:36;135.75;;;74.53;;
36415;SDS011;22447;44.530;18.620;2024-02-21T04:23:02;141.77;;;78.88;;
36415;SDS011;22447;44.530;18.620;2024-02-21T04:25:28;128.45;;;70.97;;
36415;SDS011;22447;44.530;18.620;2024-02-21T04:27:53;137.55;;;76.38;;
36415;SDS011;22447;44.530;18.620;2024-02-21T04:30:19;150.82;;;81.72;;
36415;SDS011;22447;44.530;18.620;2024-02-21T04:32:45;175.85;;;89.43;;
36415;SDS011;22447;44.530;18.620;2024-02-21T04:35:11;193.32;;;97.85;;
36415;SDS011;22447;44.530;18.620;2024-02-21T04:37:37;189.40;;;99.35;;
36415;SDS011;22447;44.530;18.620;2024-02-21T04:40:02;187.07;;;96.20;;
36415;SDS011;22447;44.530;18.620;2024-02-21T04:42:28;179.85;;;93.72;;
36415;SDS011;22447;44.530;18.620;2024-02-21T04:44:54;188.00;;;97.43;;
36415;SDS011;22447;44.530;18.620;2024-02-21T04:47:20;170.00;;;91.07;;
36415;SDS011;22447;44.530;18.620;2024-02-21T04:49:46;179.45;;;99.15;;
36415;SDS011;22447;44.530;18.620;2024-02-21T04:52:12;169.60;;;88.18;;
36415;SDS011;22447;44.530;18.620;2024-02-21T04:54:38;187.45;;;97.15;;
36415;SDS011;22447;44.530;18.620;2024-02-21T04:57:04;183.63;;;97.45;;
36415;SDS011;22447;44.530;18.620;2024-02-21T04:59:30;189.70;;;100.38;;
36415;SDS011;22447;44.530;18.620;2024-02-21T05:01:55;171.98;;;94.50;;
36415;SDS011;22447;44.530;18.620;2024-02-21T05:04:21;161.85;;;92.57;;
36415;SDS011;22447;44.530;18.620;2024-02-21T05:06:47;185.55;;;99.45;;
36415;SDS011;22447;44.530;18.620;2024-02-21T05:09:13;188.57;;;104.38;;
36415;SDS011;22447;44.530;18.620;2024-02-21T05:11:39;178.13;;;101.10;;
36415;SDS011;22447;44.530;18.620;2024-02-21T05:14:05;184.55;;;103.93;;
36415;SDS011;22447;44.530;18.620;2024-02-21T05:16:31;205.77;;;111.55;;
36415;SDS011;22447;44.530;18.620;2024-02-21T05:18:57;190.52;;;104.00;;
36415;SDS011;22447;44.530;18.620;2024-02-21T05:21:23;182.50;;;100.13;;
36415;SDS011;22447;44.530;18.620;2024-02-21T05:23:50;172.73;;;96.35;;
36415;SDS011;22447;44.530;18.620;2024-02-21T05:26:22;189.18;;;105.82;;
36415;SDS011;22447;44.530;18.620;2024-02-21T05:28:50;174.25;;;95.00;;
36415;SDS011;22447;44.530;18.620;2024-02-21T05:31:17;179.65;;;102.78;;
36415;SDS011;22447;44.530;18.620;2024-02-21T05:33:43;186.40;;;103.10;;
36415;SDS011;22447;44.530;18.620;2024-02-21T05:36:10;171.82;;;97.07;;
36415;SDS011;22447;44.530;18.620;2024-02-21T05:38:36;190.95;;;104.22;;
36415;SDS011;22447;44.530;18.620;2024-02-21T05:41:02;179.52;;;97.45;;
36415;SDS011;22447;44.530;18.620;2024-02-21T05:43:29;176.35;;;98.60;;
36415;SDS011;22447;44.530;18.620;2024-02-21T05:45:55;195.38;;;110.78;;
36415;SDS011;22447;44.530;18.620;2024-02-21T05:48:23;183.38;;;103.15;;
36415;SDS011;22447;44.530;18.620;2024-02-21T05:50:50;138.88;;;80.50;;
36415;SDS011;22447;44.530;18.620;2024-02-21T05:53:15;145.05;;;81.97;;
36415;SDS011;22447;44.530;18.620;2024-02-21T05:55:41;137.35;;;78.75;;
36415;SDS011;22447;44.530;18.620;2024-02-21T05:58:07;149.07;;;81.13;;
36415;SDS011;22447;44.530;18.620;2024-02-21T06:00:37;163.30;;;90.28;;
36415;SDS011;22447;44.530;18.620;2024-02-21T06:03:03;148.30;;;80.32;;
36415;SDS011;22447;44.530;18.620;2024-02-21T06:05:29;156.63;;;90.30;;
36415;SDS011;22447;44.530;18.620;2024-02-21T06:07:56;169.35;;;93.50;;
36415;SDS011;22447;44.530;18.620;2024-02-21T06:10:22;165.48;;;87.93;;
36415;SDS011;22447;44.530;18.620;2024-02-21T06:12:47;137.05;;;77.95;;
36415;SDS011;22447;44.530;18.620;2024-02-21T06:15:13;130.73;;;73.70;;
36415;SDS011;22447;44.530;18.620;2024-02-21T06:17:39;177.88;;;96.22;;
36415;SDS011;22447;44.530;18.620;2024-02-21T06:20:05;165.30;;;87.63;;
36415;SDS011;22447;44.530;18.620;2024-02-21T06:22:31;170.57;;;91.03;;
36415;SDS011;22447;44.530;18.620;2024-02-21T06:24:57;179.82;;;94.90;;
36415;SDS011;22447;44.530;18.620;2024-02-21T06:27:23;197.05;;;93.38;;
36415;SDS011;22447;44.530;18.620;2024-02-21T06:29:49;164.15;;;94.13;;
36415;SDS011;22447;44.530;18.620;2024-02-21T06:32:15;172.23;;;91.97;;
36415;SDS011;22447;44.530;18.620;2024-02-21T06:34:41;179.13;;;94.15;;
36415;SDS011;22447;44.530;18.620;2024-02-21T06:37:07;180.48;;;93.13;;
36415;SDS011;22447;44.530;18.620;2024-02-21T06:39:33;199.57;;;102.55;;
36415;SDS011;22447;44.530;18.620;2024-02-21T06:42:01;208.90;;;107.43;;
36415;SDS011;22447;44.530;18.620;2024-02-21T06:44:27;173.30;;;92.63;;
36415;SDS011;22447;44.530;18.620;2024-02-21T06:46:53;162.48;;;85.72;;
36415;SDS011;22447;44.530;18.620;2024-02-21T06:49:19;184.38;;;97.63;;
36415;SDS011;22447;44.530;18.620;2024-02-21T06:51:45;215.98;;;113.47;;
36415;SDS011;22447;44.530;18.620;2024-02-21T06:54:11;252.70;;;122.20;;
36415;SDS011;22447;44.530;18.620;2024-02-21T06:56:37;294.80;;;142.02;;
36415;SDS011;22447;44.530;18.620;2024-02-21T06:59:05;249.95;;;126.72;;
36415;SDS011;22447;44.530;18.620;2024-02-21T07:01:30;236.40;;;124.47;;
36415;SDS011;22447;44.530;18.620;2024-02-21T07:03:56;234.10;;;126.53;;
36415;SDS011;22447;44.530;18.620;2024-02-21T07:06:23;225.70;;;117.45;;
36415;SDS011;22447;44.530;18.620;2024-02-21T07:08:48;217.45;;;110.72;;
36415;SDS011;22447;44.530;18.620;2024-02-21T07:11:14;191.70;;;95.60;;
36415;SDS011;22447;44.530;18.620;2024-02-21T07:13:40;196.27;;;96.95;;
36415;SDS011;22447;44.530;18.620;2024-02-21T07:16:06;182.48;;;94.15;;
36415;SDS011;22447;44.530;18.620;2024-02-21T07:18:33;204.40;;;99.28;;
36415;SDS011;22447;44.530;18.620;2024-02-21T07:20:59;207.25;;;101.10;;
36415;SDS011;22447;44.530;18.620;2024-02-21T07:23:25;227.15;;;104.43;;
36415;SDS011;22447;44.530;18.620;2024-02-21T07:25:51;210.85;;;101.60;;
36415;SDS011;22447;44.530;18.620;2024-02-21T07:28:16;218.45;;;99.35;;
36415;SDS011;22447;44.530;18.620;2024-02-21T07:30:45;245.02;;;111.07;;
36415;SDS011;22447;44.530;18.620;2024-02-21T07:33:10;250.48;;;109.28;;
36415;SDS011;22447;44.530;18.620;2024-02-21T07:35:36;237.02;;;111.03;;
36415;SDS011;22447;44.530;18.620;2024-02-21T07:38:06;263.23;;;113.68;;
36415;SDS011;22447;44.530;18.620;2024-02-21T07:40:32;313.33;;;126.40;;
36415;SDS011;22447;44.530;18.620;2024-02-21T07:42:58;285.73;;;114.97;;
36415;SDS011;22447;44.530;18.620;2024-02-21T07:45:24;252.13;;;108.32;;
36415;SDS011;22447;44.530;18.620;2024-02-21T07:47:49;224.40;;;100.20;;
36415;SDS011;22447;44.530;18.620;2024-02-21T07:50:16;249.95;;;103.93;;
36415;SDS011;22447;44.530;18.620;2024-02-21T07:52:42;212.80;;;95.53;;
36415;SDS011;22447;44.530;18.620;2024-02-21T07:55:08;213.63;;;92.07;;
36415;SDS011;22447;44.530;18.620;2024-02-21T07:57:35;229.43;;;93.97;;
36415;SDS011;22447;44.530;18.620;2024-02-21T08:00:02;236.82;;;96.82;;
36415;SDS011;22447;44.530;18.620;2024-02-21T08:02:37;215.65;;;91.97;;
36415;SDS011;22447;44.530;18.620;2024-02-21T08:05:03;208.05;;;87.90;;
36415;SDS011;22447;44.530;18.620;2024-02-21T08:07:29;194.07;;;85.05;;
36415;SDS011;22447;44.530;18.620;2024-02-21T08:09:56;181.85;;;84.00;;
36415;SDS011;22447;44.530;18.620;2024-02-21T08:12:22;203.23;;;93.07;;
36415;SDS011;22447;44.530;18.620;2024-02-21T08:14:47;221.40;;;95.45;;
36415;SDS011;22447;44.530;18.620;2024-02-21T08:17:13;212.90;;;93.00;;
36415;SDS011;22447;44.530;18.620;2024-02-21T08:19:39;207.48;;;95.53;;
36415;SDS011;22447;44.530;18.620;2024-02-21T08:22:05;214.65;;;99.05;;
36415;SDS011;22447;44.530;18.620;2024-02-21T08:24:32;196.88;;;92.00;;
36415;SDS011;22447;44.530;18.620;2024-02-21T08:26:57;186.75;;;85.68;;
36415;SDS011;22447;44.530;18.620;2024-02-21T08:29:23;171.95;;;82.47;;
36415;SDS011;22447;44.530;18.620;2024-02-21T08:31:49;176.35;;;82.88;;
36415;SDS011;22447;44.530;18.620;2024-02-21T08:34:15;162.18;;;72.03;;
36415;SDS011;22447;44.530;18.620;2024-02-21T08:36:42;157.35;;;73.60;;
36415;SDS011;22447;44.530;18.620;2024-02-21T08:39:08;160.75;;;78.78;;
36415;SDS011;22447;44.530;18.620;2024-02-21T08:41:34;149.82;;;69.88;;
36415;SDS011;22447;44.530;18.620;2024-02-21T08:44:00;148.98;;;72.22;;
36415;SDS011;22447;44.530;18.620;2024-02-21T08:46:26;158.02;;;74.50;;
36415;SDS011;22447;44.530;18.620;2024-02-21T08:48:54;146.48;;;75.70;;
36415;SDS011;22447;44.530;18.620;2024-02-21T08:51:20;148.48;;;77.53;;
36415;SDS011;22447;44.530;18.620;2024-02-21T08:53:46;154.85;;;82.70;;
36415;SDS011;22447;44.530;18.620;2024-02-21T08:56:13;128.48;;;67.88;;
36415;SDS011;22447;44.530;18.620;2024-02-21T08:58:39;105.50;;;54.00;;
36415;SDS011;22447;44.530;18.620;2024-02-21T09:01:06;56.78;;;27.35;;
36415;SDS011;22447;44.530;18.620;2024-02-21T09:03:37;46.35;;;23.83;;
36415;SDS011;22447;44.530;18.620;2024-02-21T09:06:04;50.20;;;25.73;;
36415;SDS011;22447;44.530;18.620;2024-02-21T09:08:31;45.70;;;22.05;;
36415;SDS011;22447;44.530;18.620;2024-02-21T09:10:57;27.40;;;15.35;;
36415;SDS011;22447;44.530;18.620;2024-02-21T09:13:23;88.85;;;34.83;;
36415;SDS011;22447;44.530;18.620;2024-02-21T09:15:49;43.35;;;18.13;;
36415;SDS011;22447;44.530;18.620;2024-02-21T09:18:15;29.67;;;16.10;;
36415;SDS011;22447;44.530;18.620;2024-02-21T09:20:42;28.35;;;14.05;;
36415;SDS011;22447;44.530;18.620;2024-02-21T09:23:08;61.05;;;25.35;;
36415;SDS011;22447;44.530;18.620;2024-02-21T09:25:34;36.08;;;14.77;;
36415;SDS011;22447;44.530;18.620;2024-02-21T09:28:00;30.90;;;13.07;;
36415;SDS011;22447;44.530;18.620;2024-02-21T09:30:27;19.25;;;10.00;;
36415;SDS011;22447;44.530;18.620;2024-02-21T09:32:53;23.73;;;12.23;;
36415;SDS011;22447;44.530;18.620;2024-02-21T09:35:19;22.65;;;9.73;;
36415;SDS011;22447;44.530;18.620;2024-02-21T09:37:47;32.95;;;15.43;;
36415;SDS011;22447;44.530;18.620;2024-02-21T09:40:15;32.40;;;11.30;;
36415;SDS011;22447;44.530;18.620;2024-02-21T09:42:42;16.42;;;8.20;;
36415;SDS011;22447;44.530;18.620;2024-02-21T09:48:06;20.33;;;7.97;;
36415;SDS011;22447;44.530;18.620;2024-02-21T09:50:49;13.10;;;5.28;;
36415;SDS011;22447;44.530;18.620;2024-02-21T09:53:16;22.88;;;6.88;;
36415;SDS011;22447;44.530;18.620;2024-02-21T09:55:44;19.23;;;7.22;;
36415;SDS011;22447;44.530;18.620;2024-02-21T09:58:11;13.43;;;6.15;;
36415;SDS011;22447;44.530;18.620;2024-02-21T10:00:38;21.27;;;7.47;;
36415;SDS011;22447;44.530;18.620;2024-02-21T10:03:04;78.32;;;35.55;;
36415;SDS011;22447;44.530;18.620;2024-02-21T10:05:33;86.78;;;36.03;;
36415;SDS011;22447;44.530;18.620;2024-02-21T10:08:00;56.40;;;24.10;;
36415;SDS011;22447;44.530;18.620;2024-02-21T10:10:27;47.35;;;22.40;;
36415;SDS011;22447;44.530;18.620;2024-02-21T10:12:54;57.80;;;18.38;;
36415;SDS011;22447;44.530;18.620;2024-02-21T10:15:21;51.67;;;20.25;;
36415;SDS011;22447;44.530;18.620;2024-02-21T10:17:49;67.60;;;19.85;;
36415;SDS011;22447;44.530;18.620;2024-02-21T10:20:23;81.68;;;31.05;;
36415;SDS011;22447;44.530;18.620;2024-02-21T10:22:49;56.72;;;25.38;;
36415;SDS011;22447;44.530;18.620;2024-02-21T10:25:25;37.55;;;19.48;;
36415;SDS011;22447;44.530;18.620;2024-02-21T10:27:51;57.42;;;21.25;;
36415;SDS011;22447;44.530;18.620;2024-02-21T10:30:17;61.53;;;20.63;;
36415;SDS011;22447;44.530;18.620;2024-02-21T10:32:50;30.27;;;15.05;;
36415;SDS011;22447;44.530;18.620;2024-02-21T10:35:25;32.92;;;15.20;;
36415;SDS011;22447;44.530;18.620;2024-02-21T10:37:52;47.75;;;16.40;;
36415;SDS011;22447;44.530;18.620;2024-02-21T10:40:21;32.67;;;11.52;;
36415;SDS011;22447;44.530;18.620;2024-02-21T10:43:01;16.00;;;7.18;;
36415;SDS011;22447;44.530;18.620;2024-02-21T10:45:30;37.03;;;10.13;;
36415;SDS011;22447;44.530;18.620;2024-02-21T10:48:22;25.23;;;10.57;;
36415;SDS011;22447;44.530;18.620;2024-02-21T10:51:00;35.78;;;13.55;;
36415;SDS011;22447;44.530;18.620;2024-02-21T10:53:35;32.20;;;11.25;;
36415;SDS011;22447;44.530;18.620;2024-02-21T10:56:31;26.15;;;10.23;;
36415;SDS011;22447;44.530;18.620;2024-02-21T10:59:01;65.78;;;16.42;;
36415;SDS011;22447;44.530;18.620;2024-02-21T11:01:29;47.15;;;15.05;;
36415;SDS011;22447;44.530;18.620;2024-02-21T11:04:07;42.53;;;14.20;;
36415;SDS011;22447;44.530;18.620;2024-02-21T11:06:36;33.90;;;12.25;;
36415;SDS011;22447;44.530;18.620;2024-02-21T11:09:09;50.08;;;23.05;;
36415;SDS011;22447;44.530;18.620;2024-02-21T11:11:35;46.60;;;24.05;;
36415;SDS011;22447;44.530;18.620;2024-02-21T11:14:08;41.45;;;25.20;;
36415;SDS011;22447;44.530;18.620;2024-02-21T11:16:38;59.83;;;19.73;;
36415;SDS011;22447;44.530;18.620;2024-02-21T11:19:08;32.75;;;15.75;;
36415;SDS011;22447;44.530;18.620;2024-02-21T11:21:45;22.25;;;13.23;;
36415;SDS011;22447;44.530;18.620;2024-02-21T11:24:11;20.95;;;10.38;;
36415;SDS011;22447;44.530;18.620;2024-02-21T11:26:37;16.67;;;11.07;;
36415;SDS011;22447;44.530;18.620;2024-02-21T11:29:03;34.63;;;14.35;;
36415;SDS011;22447;44.530;18.620;2024-02-21T11:31:43;28.58;;;11.40;;
36415;SDS011;22447;44.530;18.620;2024-02-21T11:34:11;32.35;;;11.55;;
36415;SDS011;22447;44.530;18.620;2024-02-21T11:36:50;39.10;;;10.43;;
36415;SDS011;22447;44.530;18.620;2024-02-21T11:39:24;28.55;;;8.65;;
36415;SDS011;22447;44.530;18.620;2024-02-21T11:42:06;30.60;;;10.70;;
36415;SDS011;22447;44.530;18.620;2024-02-21T11:44:33;27.80;;;8.98;;
36415;SDS011;22447;44.530;18.620;2024-02-21T11:47:03;14.18;;;7.97;;
36415;SDS011;22447;44.530;18.620;2024-02-21T11:49:30;19.05;;;8.05;;
36415;SDS011;22447;44.530;18.620;2024-02-21T11:52:02;16.50;;;8.68;;
36415;SDS011;22447;44.530;18.620;2024-02-21T11:54:32;17.55;;;8.35;;
36415;SDS011;22447;44.530;18.620;2024-02-21T11:56:59;30.77;;;11.10;;
36415;SDS011;22447;44.530;18.620;2024-02-21T11:59:25;21.30;;;10.52;;
36415;SDS011;22447;44.530;18.620;2024-02-21T12:01:52;45.22;;;19.52;;
36415;SDS011;22447;44.530;18.620;2024-02-21T12:04:19;41.30;;;19.42;;
36415;SDS011;22447;44.530;18.620;2024-02-21T12:06:45;40.75;;;18.60;;
36415;SDS011;22447;44.530;18.620;2024-02-21T12:09:15;44.75;;;21.83;;
36415;SDS011;22447;44.530;18.620;2024-02-21T12:11:44;41.97;;;21.55;;
36415;SDS011;22447;44.530;18.620;2024-02-21T12:14:15;31.25;;;17.27;;
36415;SDS011;22447;44.530;18.620;2024-02-21T12:19:09;29.35;;;15.32;;
36415;SDS011;22447;44.530;18.620;2024-02-21T12:21:35;35.40;;;16.52;;
36415;SDS011;22447;44.530;18.620;2024-02-21T12:24:22;57.85;;;17.23;;
36415;SDS011;22447;44.530;18.620;2024-02-21T12:26:52;32.30;;;12.55;;
36415;SDS011;22447;44.530;18.620;2024-02-21T12:29:19;21.33;;;8.65;;
36415;SDS011;22447;44.530;18.620;2024-02-21T12:31:46;21.35;;;6.47;;
36415;SDS011;22447;44.530;18.620;2024-02-21T12:34:12;13.77;;;4.22;;
36415;SDS011;22447;44.530;18.620;2024-02-21T12:36:42;17.52;;;5.25;;
36415;SDS011;22447;44.530;18.620;2024-02-21T12:39:09;16.15;;;3.85;;
36415;SDS011;22447;44.530;18.620;2024-02-21T12:41:35;30.58;;;6.85;;
36415;SDS011;22447;44.530;18.620;2024-02-21T12:44:06;28.65;;;5.95;;
36415;SDS011;22447;44.530;18.620;2024-02-21T12:46:33;11.65;;;4.05;;
36415;SDS011;22447;44.530;18.620;2024-02-21T12:48:59;9.57;;;4.47;;
36415;SDS011;22447;44.530;18.620;2024-02-21T12:51:29;19.25;;;4.55;;
36415;SDS011;22447;44.530;18.620;2024-02-21T12:53:55;15.40;;;5.30;;
36415;SDS011;22447;44.530;18.620;2024-02-21T12:56:22;16.33;;;4.78;;
36415;SDS011;22447;44.530;18.620;2024-02-21T12:58:48;34.72;;;9.50;;
36415;SDS011;22447;44.530;18.620;2024-02-21T13:01:14;17.40;;;4.90;;
36415;SDS011;22447;44.530;18.620;2024-02-21T13:03:40;34.97;;;7.13;;
36415;SDS011;22447;44.530;18.620;2024-02-21T13:06:06;14.38;;;5.28;;
36415;SDS011;22447;44.530;18.620;2024-02-21T13:08:38;32.08;;;8.82;;
36415;SDS011;22447;44.530;18.620;2024-02-21T13:11:05;23.00;;;6.93;;
36415;SDS011;22447;44.530;18.620;2024-02-21T13:13:31;55.58;;;10.55;;
36415;SDS011;22447;44.530;18.620;2024-02-21T13:15:58;22.98;;;5.75;;
36415;SDS011;22447;44.530;18.620;2024-02-21T13:18:24;19.13;;;6.32;;
36415;SDS011;22447;44.530;18.620;2024-02-21T13:20:50;23.58;;;7.35;;
36415;SDS011;22447;44.530;18.620;2024-02-21T13:23:15;25.77;;;7.85;;
36415;SDS011;22447;44.530;18.620;2024-02-21T13:25:41;22.75;;;6.00;;
36415;SDS011;22447;44.530;18.620;2024-02-21T13:28:07;10.85;;;4.57;;
36415;SDS011;22447;44.530;18.620;2024-02-21T13:30:34;18.08;;;5.07;;
36415;SDS011;22447;44.530;18.620;2024-02-21T13:33:00;12.30;;;5.47;;
36415;SDS011;22447;44.530;18.620;2024-02-21T13:35:28;28.77;;;6.50;;
36415;SDS011;22447;44.530;18.620;2024-02-21T13:37:54;48.55;;;10.85;;
36415;SDS011;22447;44.530;18.620;2024-02-21T13:40:20;26.02;;;6.70;;
36415;SDS011;22447;44.530;18.620;2024-02-21T13:42:46;13.93;;;5.93;;
36415;SDS011;22447;44.530;18.620;2024-02-21T13:45:11;12.15;;;5.60;;
36415;SDS011;22447;44.530;18.620;2024-02-21T13:47:37;13.85;;;6.30;;
36415;SDS011;22447;44.530;18.620;2024-02-21T13:50:06;34.28;;;7.90;;
36415;SDS011;22447;44.530;18.620;2024-02-21T13:52:36;16.75;;;6.80;;
36415;SDS011;22447;44.530;18.620;2024-02-21T13:55:03;18.35;;;6.50;;
36415;SDS011;22447;44.530;18.620;2024-02-21T13:57:28;15.50;;;6.05;;
36415;SDS011;22447;44.530;18.620;2024-02-21T13:59:55;17.85;;;6.32;;
36415;SDS011;22447;44.530;18.620;2024-02-21T14:02:20;20.35;;;6.93;;
36415;SDS011;22447;44.530;18.620;2024-02-21T14:04:46;30.45;;;9.27;;
36415;SDS011;22447;44.530;18.620;2024-02-21T14:07:12;18.60;;;7.85;;